sensor_id;sensor_type;location;lat;lon;timestamp;pressure;altitude;pressure_sealevel;temperature;humidity
11314;BME280;5712;48.858;9.206;2022-09-09T00:02:27;97809.31;;;14.60;100.00
11314;BME280;5712;48.858;9.206;2022-09-09T00:04:58;97806.78;;;14.68;100.00
11314;BME280;5712;48.858;9.206;2022-09-09T00:07:36;97802.31;;;14.68;100.00
11314;BME280;5712;48.858;9.206;2022-09-09T00:10:16;97805.38;;;14.73;100.00
11314;BME280;5712;48.858;9.206;2022-09-09T00:12:53;97795.84;;;14.71;100.00
11314;BME280;5712;48.858;9.206;2022-09-09T00:15:23;97802.31;;;14.68;100.00
11314;BME280;5712;48.858;9.206;2022-09-09T00:17:56;97797.13;;;14.67;100.00
11314;BME280;5712;48.858;9.206;2022-09-09T00:20:29;97799.50;;;14.70;100.00
11314;BME280;5712;48.858;9.206;2022-09-09T00:23:04;97795.59;;;14.74;100.00
11314;BME280;5712;48.858;9.206;2022-09-09T00:25:41;97791.94;;;14.75;100.00
11314;BME280;5712;48.858;9.206;2022-09-09T00:28:16;97795.28;;;14.77;100.00
11314;BME280;5712;48.858;9.206;2022-09-09T00:30:44;97786.50;;;14.86;100.00
11314;BME280;5712;48.858;9.206;2022-09-09T00:33:15;97787.47;;;14.94;100.00
11314;BME280;5712;48.858;9.206;2022-09-09T00:35:45;97793.47;;;15.06;99.53
11314;BME280;5712;48.858;9.206;2022-09-09T00:38:18;97787.03;;;15.08;99.05
11314;BME280;5712;48.858;9.206;2022-09-09T00:40:49;97783.94;;;15.13;98.33
11314;BME280;5712;48.858;9.206;2022-09-09T00:43:25;97786.31;;;15.16;97.79
11314;BME280;5712;48.858;9.206;2022-09-09T00:48:50;97784.75;;;15.23;96.70
11314;BME280;5712;48.858;9.206;2022-09-09T00:51:22;97787.97;;;15.26;96.20
11314;BME280;5712;48.858;9.206;2022-09-09T00:54:06;97784.88;;;15.31;95.96
11314;BME280;5712;48.858;9.206;2022-09-09T00:56:38;97792.63;;;15.34;95.81
11314;BME280;5712;48.858;9.206;2022-09-09T00:59:15;97788.69;;;15.38;95.27
11314;BME280;5712;48.858;9.206;2022-09-09T01:01:51;97792.75;;;15.42;94.38
11314;BME280;5712;48.858;9.206;2022-09-09T01:04:27;97791.88;;;15.51;93.29
11314;BME280;5712;48.858;9.206;2022-09-09T01:07:03;97797.78;;;15.54;92.90
11314;BME280;5712;48.858;9.206;2022-09-09T01:09:44;97790.16;;;15.59;92.04
11314;BME280;5712;48.858;9.206;2022-09-09T01:12:15;97786.91;;;15.65;90.52
11314;BME280;5712;48.858;9.206;2022-09-09T01:14:44;97788.75;;;15.65;90.72
11314;BME280;5712;48.858;9.206;2022-09-09T01:17:22;97785.78;;;15.68;90.98
11314;BME280;5712;48.858;9.206;2022-09-09T01:20:06;97784.56;;;15.62;91.49
11314;BME280;5712;48.858;9.206;2022-09-09T01:22:42;97783.56;;;15.63;91.62
11314;BME280;5712;48.858;9.206;2022-09-09T01:28:01;97787.94;;;15.55;92.02
11314;BME280;5712;48.858;9.206;2022-09-09T01:30:30;97801.13;;;15.56;91.88
11314;BME280;5712;48.858;9.206;2022-09-09T01:32:58;97799.31;;;15.57;92.13
11314;BME280;5712;48.858;9.206;2022-09-09T01:35:37;97800.56;;;15.53;92.66
11314;BME280;5712;48.858;9.206;2022-09-09T01:38:06;97807.88;;;15.51;92.98
11314;BME280;5712;48.858;9.206;2022-09-09T01:40:33;97813.19;;;15.51;92.78
11314;BME280;5712;48.858;9.206;2022-09-09T01:43:01;97807.16;;;15.49;93.18
11314;BME280;5712;48.858;9.206;2022-09-09T01:45:29;97807.88;;;15.51;92.93
11314;BME280;5712;48.858;9.206;2022-09-09T01:47:57;97795.50;;;15.50;93.07
11314;BME280;5712;48.858;9.206;2022-09-09T01:50:24;97803.38;;;15.51;93.18
11314;BME280;5712;48.858;9.206;2022-09-09T01:52:54;97803.38;;;15.51;92.89
11314;BME280;5712;48.858;9.206;2022-09-09T01:55:29;97800.25;;;15.56;92.54
11314;BME280;5712;48.858;9.206;2022-09-09T01:58:04;97806.31;;;15.58;92.12
11314;BME280;5712;48.858;9.206;2022-09-09T02:00:41;97803.34;;;15.61;91.75
11314;BME280;5712;48.858;9.206;2022-09-09T02:03:16;97798.00;;;15.61;91.62
11314;BME280;5712;48.858;9.206;2022-09-09T02:05:52;97798.31;;;15.58;92.14
11314;BME280;5712;48.858;9.206;2022-09-09T02:08:26;97797.22;;;15.51;91.78
11314;BME280;5712;48.858;9.206;2022-09-09T02:10:59;97792.75;;;15.42;92.11
11314;BME280;5712;48.858;9.206;2022-09-09T02:13:32;97788.13;;;15.25;92.19
11314;BME280;5712;48.858;9.206;2022-09-09T02:16:04;97792.47;;;15.07;94.00
11314;BME280;5712;48.858;9.206;2022-09-09T02:18:35;97801.59;;;14.95;95.38
11314;BME280;5712;48.858;9.206;2022-09-09T02:21:05;97803.44;;;14.85;96.26
11314;BME280;5712;48.858;9.206;2022-09-09T02:23:34;97805.25;;;14.75;96.80
11314;BME280;5712;48.858;9.206;2022-09-09T02:26:01;97805.38;;;14.64;97.62
11314;BME280;5712;48.858;9.206;2022-09-09T02:28:32;97797.25;;;14.56;98.45
11314;BME280;5712;48.858;9.206;2022-09-09T02:31:00;97798.06;;;14.47;99.32
11314;BME280;5712;48.858;9.206;2022-09-09T02:33:30;97793.72;;;14.36;99.64
11314;BME280;5712;48.858;9.206;2022-09-09T02:36:01;97800.31;;;14.32;99.33
11314;BME280;5712;48.858;9.206;2022-09-09T02:38:35;97808.97;;;14.25;99.64
11314;BME280;5712;48.858;9.206;2022-09-09T02:41:05;97818.69;;;14.15;100.00
11314;BME280;5712;48.858;9.206;2022-09-09T02:43:34;97812.22;;;14.08;100.00
11314;BME280;5712;48.858;9.206;2022-09-09T02:46:08;97806.91;;;14.08;100.00
11314;BME280;5712;48.858;9.206;2022-09-09T02:48:50;97807.47;;;14.02;100.00
11314;BME280;5712;48.858;9.206;2022-09-09T02:51:24;97803.53;;;13.96;100.00
11314;BME280;5712;48.858;9.206;2022-09-09T02:54:04;97796.22;;;13.89;100.00
11314;BME280;5712;48.858;9.206;2022-09-09T02:56:43;97793.41;;;13.81;100.00
11314;BME280;5712;48.858;9.206;2022-09-09T02:59:13;97797.59;;;13.74;100.00
11314;BME280;5712;48.858;9.206;2022-09-09T03:01:40;97780.19;;;13.60;100.00
11314;BME280;5712;48.858;9.206;2022-09-09T03:04:07;97778.06;;;13.54;100.00
11314;BME280;5712;48.858;9.206;2022-09-09T03:06:33;97770.63;;;13.48;100.00
11314;BME280;5712;48.858;9.206;2022-09-09T03:09:00;97771.44;;;13.49;100.00
11314;BME280;5712;48.858;9.206;2022-09-09T03:11:28;97768.63;;;13.41;100.00
11314;BME280;5712;48.858;9.206;2022-09-09T03:13:55;97769.84;;;13.37;100.00
11314;BME280;5712;48.858;9.206;2022-09-09T03:16:23;97771.09;;;13.33;100.00
11314;BME280;5712;48.858;9.206;2022-09-09T03:18:50;97776.66;;;13.30;100.00
11314;BME280;5712;48.858;9.206;2022-09-09T03:21:17;97776.66;;;13.30;100.00
11314;BME280;5712;48.858;9.206;2022-09-09T03:23:44;97774.97;;;13.29;100.00
11314;BME280;5712;48.858;9.206;2022-09-09T03:26:11;97784.44;;;13.22;100.00
11314;BME280;5712;48.858;9.206;2022-09-09T03:28:40;97784.56;;;13.20;100.00
11314;BME280;5712;48.858;9.206;2022-09-09T03:31:07;97769.50;;;13.21;100.00
11314;BME280;5712;48.858;9.206;2022-09-09T03:33:37;97779.13;;;13.22;100.00
11314;BME280;5712;48.858;9.206;2022-09-09T03:36:04;97792.53;;;13.20;100.00
11314;BME280;5712;48.858;9.206;2022-09-09T03:38:31;97790.72;;;13.21;100.00
11314;BME280;5712;48.858;9.206;2022-09-09T03:40:59;97788.19;;;13.19;100.00
11314;BME280;5712;48.858;9.206;2022-09-09T03:43:28;97790.00;;;13.19;100.00
11314;BME280;5712;48.858;9.206;2022-09-09T03:45:55;97792.13;;;13.25;100.00
11314;BME280;5712;48.858;9.206;2022-09-09T03:48:22;97795.91;;;13.22;100.00
11314;BME280;5712;48.858;9.206;2022-09-09T03:50:53;97795.91;;;13.22;100.00
11314;BME280;5712;48.858;9.206;2022-09-09T03:53:22;97792.84;;;13.27;100.00
11314;BME280;5712;48.858;9.206;2022-09-09T03:55:51;97794.47;;;13.39;100.00
11314;BME280;5712;48.858;9.206;2022-09-09T03:58:20;97795.78;;;13.54;100.00
11314;BME280;5712;48.858;9.206;2022-09-09T04:00:53;97788.06;;;13.71;100.00
11314;BME280;5712;48.858;9.206;2022-09-09T04:03:20;97792.31;;;13.83;100.00
11314;BME280;5712;48.858;9.206;2022-09-09T04:05:48;97793.88;;;13.95;100.00
11314;BME280;5712;48.858;9.206;2022-09-09T04:08:18;97787.50;;;14.07;100.00
11314;BME280;5712;48.858;9.206;2022-09-09T04:10:45;97795.75;;;14.14;100.00
11314;BME280;5712;48.858;9.206;2022-09-09T04:13:12;97789.38;;;14.26;100.00
11314;BME280;5712;48.858;9.206;2022-09-09T04:15:41;97793.88;;;14.35;100.00
11314;BME280;5712;48.858;9.206;2022-09-09T04:18:08;97800.03;;;14.45;100.00
11314;BME280;5712;48.858;9.206;2022-09-09T04:20:35;97796.69;;;14.43;100.00
11314;BME280;5712;48.858;9.206;2022-09-09T04:23:02;97795.56;;;14.45;100.00
11314;BME280;5712;48.858;9.206;2022-09-09T04:25:30;97789.41;;;14.45;100.00
11314;BME280;5712;48.858;9.206;2022-09-09T04:27:57;97797.25;;;14.46;100.00
11314;BME280;5712;48.858;9.206;2022-09-09T04:30:24;97803.25;;;14.48;100.00
11314;BME280;5712;48.858;9.206;2022-09-09T04:32:52;97801.47;;;14.49;100.00
11314;BME280;5712;48.858;9.206;2022-09-09T04:35:19;97806.47;;;14.52;100.00
11314;BME280;5712;48.858;9.206;2022-09-09T04:37:46;97803.44;;;14.56;100.00
11314;BME280;5712;48.858;9.206;2022-09-09T04:40:13;97808.31;;;14.61;100.00
11314;BME280;5712;48.858;9.206;2022-09-09T04:42:41;97808.75;;;14.66;100.00
11314;BME280;5712;48.858;9.206;2022-09-09T04:45:09;97805.66;;;14.70;100.00
11314;BME280;5712;48.858;9.206;2022-09-09T04:47:38;97811.25;;;14.77;100.00
11314;BME280;5712;48.858;9.206;2022-09-09T04:50:06;97807.66;;;14.78;100.00
11314;BME280;5712;48.858;9.206;2022-09-09T04:52:34;97809.88;;;14.82;100.00
11314;BME280;5712;48.858;9.206;2022-09-09T04:55:00;97805.53;;;14.81;99.74
11314;BME280;5712;48.858;9.206;2022-09-09T04:57:27;97807.91;;;14.75;99.70
11314;BME280;5712;48.858;9.206;2022-09-09T04:59:55;97810.44;;;14.67;100.00
11314;BME280;5712;48.858;9.206;2022-09-09T05:02:22;97811.41;;;14.56;100.00
11314;BME280;5712;48.858;9.206;2022-09-09T05:04:48;97807.03;;;14.46;100.00
11314;BME280;5712;48.858;9.206;2022-09-09T05:07:15;97812.34;;;14.46;100.00
11314;BME280;5712;48.858;9.206;2022-09-09T05:09:42;97823.84;;;14.46;100.00
11314;BME280;5712;48.858;9.206;2022-09-09T05:12:10;97822.00;;;14.47;100.00
11314;BME280;5712;48.858;9.206;2022-09-09T05:14:37;97831.53;;;14.49;100.00
11314;BME280;5712;48.858;9.206;2022-09-09T05:17:05;97828.03;;;14.49;100.00
11314;BME280;5712;48.858;9.206;2022-09-09T05:19:32;97832.53;;;14.58;100.00
11314;BME280;5712;48.858;9.206;2022-09-09T05:21:58;97840.13;;;14.72;99.50
11314;BME280;5712;48.858;9.206;2022-09-09T05:24:26;97841.50;;;14.85;99.04
11314;BME280;5712;48.858;9.206;2022-09-09T05:26:53;97844.03;;;14.87;99.78
11314;BME280;5712;48.858;9.206;2022-09-09T05:29:23;97833.69;;;14.84;100.00
11314;BME280;5712;48.858;9.206;2022-09-09T05:31:49;97835.94;;;14.79;100.00
11314;BME280;5712;48.858;9.206;2022-09-09T05:34:18;97832.69;;;14.75;100.00
11314;BME280;5712;48.858;9.206;2022-09-09T05:36:44;97829.19;;;14.75;100.00
11314;BME280;5712;48.858;9.206;2022-09-09T05:39:12;97835.19;;;14.77;100.00
11314;BME280;5712;48.858;9.206;2022-09-09T05:41:38;97832.72;;;14.85;100.00
11314;BME280;5712;48.858;9.206;2022-09-09T05:44:05;97838.47;;;14.99;100.00
11314;BME280;5712;48.858;9.206;2022-09-09T05:46:32;97839.00;;;15.12;99.46
11314;BME280;5712;48.858;9.206;2022-09-09T05:48:58;97833.69;;;15.22;98.48
11314;BME280;5712;48.858;9.206;2022-09-09T05:51:28;97836.59;;;15.38;96.20
11314;BME280;5712;48.858;9.206;2022-09-09T05:53:56;97845.72;;;15.45;95.57
11314;BME280;5712;48.858;9.206;2022-09-09T05:56:25;97842.63;;;15.49;95.27
11314;BME280;5712;48.858;9.206;2022-09-09T05:58:52;97838.53;;;15.55;94.80
11314;BME280;5712;48.858;9.206;2022-09-09T06:01:21;97849.44;;;15.71;94.42
11314;BME280;5712;48.858;9.206;2022-09-09T06:03:49;97845.31;;;15.86;93.57
11314;BME280;5712;48.858;9.206;2022-09-09T06:06:18;97854.81;;;15.98;93.38
11314;BME280;5712;48.858;9.206;2022-09-09T06:08:50;97852.56;;;16.02;93.20
11314;BME280;5712;48.858;9.206;2022-09-09T06:11:18;97849.72;;;16.13;93.18
11314;BME280;5712;48.858;9.206;2022-09-09T06:13:45;97841.22;;;16.27;92.76
11314;BME280;5712;48.858;9.206;2022-09-09T06:16:15;97843.72;;;16.38;92.61
11314;BME280;5712;48.858;9.206;2022-09-09T06:18:43;97839.19;;;16.48;92.03
11314;BME280;5712;48.858;9.206;2022-09-09T06:21:13;97848.28;;;16.55;91.71
11314;BME280;5712;48.858;9.206;2022-09-09T06:23:41;97845.53;;;16.65;91.18
11314;BME280;5712;48.858;9.206;2022-09-09T06:26:13;97847.47;;;16.72;90.57
11314;BME280;5712;48.858;9.206;2022-09-09T06:28:40;97850.06;;;16.82;89.46
11314;BME280;5712;48.858;9.206;2022-09-09T06:31:10;97857.28;;;16.89;88.88
11314;BME280;5712;48.858;9.206;2022-09-09T06:33:38;97855.69;;;16.96;88.61
11314;BME280;5712;48.858;9.206;2022-09-09T06:36:07;97864.63;;;17.05;87.40
11314;BME280;5712;48.858;9.206;2022-09-09T06:38:34;97861.19;;;17.12;86.40
11314;BME280;5712;48.858;9.206;2022-09-09T06:41:01;97864.09;;;17.19;86.74
11314;BME280;5712;48.858;9.206;2022-09-09T06:43:29;97859.97;;;17.24;86.08
11314;BME280;5712;48.858;9.206;2022-09-09T06:45:57;97855.69;;;17.31;85.29
11314;BME280;5712;48.858;9.206;2022-09-09T06:48:24;97860.44;;;17.37;85.16
11314;BME280;5712;48.858;9.206;2022-09-09T06:51:00;97861.81;;;17.41;84.96
11314;BME280;5712;48.858;9.206;2022-09-09T06:53:27;97854.00;;;17.48;84.64
11314;BME280;5712;48.858;9.206;2022-09-09T06:55:54;97858.22;;;17.50;84.60
11314;BME280;5712;48.858;9.206;2022-09-09T06:58:21;97865.69;;;17.64;83.45
11314;BME280;5712;48.858;9.206;2022-09-09T07:00:49;97863.44;;;17.77;82.32
11314;BME280;5712;48.858;9.206;2022-09-09T07:03:16;97859.16;;;17.92;81.52
11314;BME280;5712;48.858;9.206;2022-09-09T07:05:43;97853.19;;;17.98;81.20
11314;BME280;5712;48.858;9.206;2022-09-09T07:08:10;97861.81;;;18.10;80.77
11314;BME280;5712;48.858;9.206;2022-09-09T07:10:37;97855.63;;;18.17;80.65
11314;BME280;5712;48.858;9.206;2022-09-09T07:13:04;97855.50;;;18.27;80.46
11314;BME280;5712;48.858;9.206;2022-09-09T07:15:31;97865.81;;;18.39;80.55
11314;BME280;5712;48.858;9.206;2022-09-09T07:18:02;97858.00;;;18.46;79.88
11314;BME280;5712;48.858;9.206;2022-09-09T07:20:28;97860.34;;;18.57;79.75
11314;BME280;5712;48.858;9.206;2022-09-09T07:22:55;97864.91;;;18.64;79.97
11314;BME280;5712;48.858;9.206;2022-09-09T07:25:24;97862.25;;;18.72;78.98
11314;BME280;5712;48.858;9.206;2022-09-09T07:27:56;97864.44;;;18.77;79.30
11314;BME280;5712;48.858;9.206;2022-09-09T07:30:22;97857.59;;;18.82;79.39
11314;BME280;5712;48.858;9.206;2022-09-09T07:32:51;97867.31;;;18.91;79.30
11314;BME280;5712;48.858;9.206;2022-09-09T07:35:19;97859.97;;;19.01;78.99
11314;BME280;5712;48.858;9.206;2022-09-09T07:37:46;97865.03;;;19.12;78.15
11314;BME280;5712;48.858;9.206;2022-09-09T07:40:12;97861.53;;;19.20;78.13
11314;BME280;5712;48.858;9.206;2022-09-09T07:42:39;97867.41;;;19.23;77.13
11314;BME280;5712;48.858;9.206;2022-09-09T07:45:06;97863.38;;;19.27;76.12
11314;BME280;5712;48.858;9.206;2022-09-09T07:47:32;97853.03;;;19.40;74.78
11314;BME280;5712;48.858;9.206;2022-09-09T07:49:59;97865.09;;;19.60;74.72
11314;BME280;5712;48.858;9.206;2022-09-09T07:52:28;97864.72;;;19.79;74.20
11314;BME280;5712;48.858;9.206;2022-09-09T07:54:54;97872.06;;;19.93;74.49
11314;BME280;5712;48.858;9.206;2022-09-09T07:57:22;97875.94;;;19.83;73.47
11314;BME280;5712;48.858;9.206;2022-09-09T07:59:49;97874.44;;;19.56;73.10
11314;BME280;5712;48.858;9.206;2022-09-09T08:02:16;97879.16;;;19.30;74.46
11314;BME280;5712;48.858;9.206;2022-09-09T08:04:42;97877.28;;;19.23;75.42
11314;BME280;5712;48.858;9.206;2022-09-09T08:07:09;97865.75;;;19.30;75.47
11314;BME280;5712;48.858;9.206;2022-09-09T08:09:37;97852.00;;;19.33;74.95
11314;BME280;5712;48.858;9.206;2022-09-09T08:12:04;97863.06;;;19.30;74.02
11314;BME280;5712;48.858;9.206;2022-09-09T08:14:34;97868.06;;;19.33;74.79
11314;BME280;5712;48.858;9.206;2022-09-09T08:17:00;97886.16;;;19.39;74.56
11314;BME280;5712;48.858;9.206;2022-09-09T08:19:27;97868.44;;;19.46;73.56
11314;BME280;5712;48.858;9.206;2022-09-09T08:21:55;97877.47;;;19.69;73.19
11314;BME280;5712;48.858;9.206;2022-09-09T08:24:22;97882.81;;;19.85;72.99
11314;BME280;5712;48.858;9.206;2022-09-09T08:26:50;97887.84;;;19.96;73.18
11314;BME280;5712;48.858;9.206;2022-09-09T08:29:17;97885.81;;;19.98;72.93
11314;BME280;5712;48.858;9.206;2022-09-09T08:31:46;97882.81;;;20.09;72.56
11314;BME280;5712;48.858;9.206;2022-09-09T08:34:13;97894.91;;;20.13;68.94
11314;BME280;5712;48.858;9.206;2022-09-09T08:36:41;97905.25;;;20.32;66.88
11314;BME280;5712;48.858;9.206;2022-09-09T08:39:10;97891.53;;;20.66;65.77
11314;BME280;5712;48.858;9.206;2022-09-09T08:41:56;97873.13;;;20.93;64.05
11314;BME280;5712;48.858;9.206;2022-09-09T08:44:34;97882.56;;;20.81;64.92
11314;BME280;5712;48.858;9.206;2022-09-09T08:47:10;97879.22;;;20.41;65.11
11314;BME280;5712;48.858;9.206;2022-09-09T08:49:54;97877.28;;;20.11;67.06
11314;BME280;5712;48.858;9.206;2022-09-09T08:52:28;97882.81;;;19.93;68.33
11314;BME280;5712;48.858;9.206;2022-09-09T08:54:59;97875.94;;;19.67;69.32
11314;BME280;5712;48.858;9.206;2022-09-09T08:57:32;97870.59;;;19.67;69.60
11314;BME280;5712;48.858;9.206;2022-09-09T09:00:00;97874.78;;;19.61;69.91
11314;BME280;5712;48.858;9.206;2022-09-09T09:02:32;97885.50;;;19.69;70.42
11314;BME280;5712;48.858;9.206;2022-09-09T09:05:17;97887.19;;;19.78;70.64
11314;BME280;5712;48.858;9.206;2022-09-09T09:07:55;97873.38;;;20.05;66.17
11314;BME280;5712;48.858;9.206;2022-09-09T09:10:36;97868.63;;;20.39;64.01
11314;BME280;5712;48.858;9.206;2022-09-09T09:13:12;97867.75;;;20.85;60.61
11314;BME280;5712;48.858;9.206;2022-09-09T09:15:42;97865.75;;;21.18;60.78
11314;BME280;5712;48.858;9.206;2022-09-09T09:18:12;97860.09;;;21.50;59.40
11314;BME280;5712;48.858;9.206;2022-09-09T09:20:49;97859.25;;;21.94;57.29
11314;BME280;5712;48.858;9.206;2022-09-09T09:23:21;97867.25;;;22.17;55.14
11314;BME280;5712;48.858;9.206;2022-09-09T09:25:50;97863.47;;;22.26;54.94
11314;BME280;5712;48.858;9.206;2022-09-09T09:28:23;97860.66;;;22.19;54.63
11314;BME280;5712;48.858;9.206;2022-09-09T09:30:55;97868.19;;;22.09;55.83
11314;BME280;5712;48.858;9.206;2022-09-09T09:33:27;97874.91;;;21.91;55.62
11314;BME280;5712;48.858;9.206;2022-09-09T09:35:55;97864.22;;;21.68;56.63
11314;BME280;5712;48.858;9.206;2022-09-09T09:38:25;97869.88;;;21.51;55.78
11314;BME280;5712;48.858;9.206;2022-09-09T09:40:54;97880.59;;;21.28;57.10
11314;BME280;5712;48.858;9.206;2022-09-09T09:43:26;97871.34;;;21.08;58.82
11314;BME280;5712;48.858;9.206;2022-09-09T09:45:54;97871.78;;;20.89;59.65
11314;BME280;5712;48.858;9.206;2022-09-09T09:48:23;97871.56;;;20.68;62.43
11314;BME280;5712;48.858;9.206;2022-09-09T09:50:52;97856.47;;;20.59;62.43
11314;BME280;5712;48.858;9.206;2022-09-09T09:53:22;97850.34;;;20.73;56.82
11314;BME280;5712;48.858;9.206;2022-09-09T09:55:54;97854.69;;;20.82;54.62
11314;BME280;5712;48.858;9.206;2022-09-09T09:58:22;97850.31;;;20.81;55.79
11314;BME280;5712;48.858;9.206;2022-09-09T10:00:51;97849.28;;;20.90;55.85
11314;BME280;5712;48.858;9.206;2022-09-09T10:03:22;97852.28;;;20.95;56.21
11314;BME280;5712;48.858;9.206;2022-09-09T10:05:50;97842.97;;;21.06;55.71
11314;BME280;5712;48.858;9.206;2022-09-09T10:08:17;97840.06;;;21.15;55.93
11314;BME280;5712;48.858;9.206;2022-09-09T10:10:57;97834.72;;;21.30;54.71
11314;BME280;5712;48.858;9.206;2022-09-09T10:13:31;97837.78;;;21.49;54.78
11314;BME280;5712;48.858;9.206;2022-09-09T10:16:12;97826.22;;;21.63;54.35
11314;BME280;5712;48.858;9.206;2022-09-09T10:18:51;97833.16;;;21.80;52.60
11314;BME280;5712;48.858;9.206;2022-09-09T10:21:36;97830.50;;;21.95;53.37
11314;BME280;5712;48.858;9.206;2022-09-09T10:24:22;97826.13;;;22.08;52.31
11314;BME280;5712;48.858;9.206;2022-09-09T10:26:56;97824.00;;;22.18;51.04
11314;BME280;5712;48.858;9.206;2022-09-09T10:29:46;97817.06;;;22.24;51.85
11314;BME280;5712;48.858;9.206;2022-09-09T10:32:37;97823.81;;;22.34;51.50
11314;BME280;5712;48.858;9.206;2022-09-09T10:35:10;97826.06;;;22.45;51.05
11314;BME280;5712;48.858;9.206;2022-09-09T10:37:50;97826.53;;;22.63;49.21
11314;BME280;5712;48.858;9.206;2022-09-09T10:40:28;97828.38;;;22.48;49.33
11314;BME280;5712;48.858;9.206;2022-09-09T10:43:04;97837.19;;;22.42;50.32
11314;BME280;5712;48.858;9.206;2022-09-09T10:45:41;97841.66;;;22.64;50.27
11314;BME280;5712;48.858;9.206;2022-09-09T10:48:33;97835.19;;;23.15;49.46
11314;BME280;5712;48.858;9.206;2022-09-09T10:51:17;97828.78;;;23.79;48.18
11314;BME280;5712;48.858;9.206;2022-09-09T10:53:55;97821.53;;;24.07;46.80
11314;BME280;5712;48.858;9.206;2022-09-09T10:56:27;97830.38;;;24.22;46.54
11314;BME280;5712;48.858;9.206;2022-09-09T10:58:58;97820.78;;;24.20;47.10
11314;BME280;5712;48.858;9.206;2022-09-09T11:01:30;97823.75;;;23.76;45.41
11314;BME280;5712;48.858;9.206;2022-09-09T11:04:05;97827.38;;;23.41;46.11
11314;BME280;5712;48.858;9.206;2022-09-09T11:06:37;97830.72;;;23.22;46.78
11314;BME280;5712;48.858;9.206;2022-09-09T11:09:10;97839.00;;;22.85;48.36
11314;BME280;5712;48.858;9.206;2022-09-09T11:11:46;97837.44;;;22.76;49.78
11314;BME280;5712;48.858;9.206;2022-09-09T11:14:19;97839.13;;;22.63;50.88
11314;BME280;5712;48.858;9.206;2022-09-09T11:16:50;97840.25;;;22.25;52.15
11314;BME280;5712;48.858;9.206;2022-09-09T11:19:25;97845.50;;;21.89;53.12
11314;BME280;5712;48.858;9.206;2022-09-09T11:21:54;97850.44;;;21.41;56.76
11314;BME280;5712;48.858;9.206;2022-09-09T11:24:26;97870.69;;;20.29;69.47
11314;BME280;5712;48.858;9.206;2022-09-09T11:26:57;97864.34;;;19.18;74.67
11314;BME280;5712;48.858;9.206;2022-09-09T11:30:12;97867.06;;;18.27;83.75
11314;BME280;5712;48.858;9.206;2022-09-09T11:33:16;97884.28;;;17.99;91.45
11314;BME280;5712;48.858;9.206;2022-09-09T11:35:56;97887.28;;;17.96;93.30
11314;BME280;5712;48.858;9.206;2022-09-09T11:38:27;97896.34;;;18.03;94.98
11314;BME280;5712;48.858;9.206;2022-09-09T11:40:56;97884.28;;;17.99;92.08
11314;BME280;5712;48.858;9.206;2022-09-09T11:43:27;97873.25;;;18.28;87.72
11314;BME280;5712;48.858;9.206;2022-09-09T11:45:59;97877.34;;;18.73;87.28
11314;BME280;5712;48.858;9.206;2022-09-09T11:48:32;97876.41;;;19.06;78.66
11314;BME280;5712;48.858;9.206;2022-09-09T11:51:03;97878.81;;;19.41;79.67
11314;BME280;5712;48.858;9.206;2022-09-09T11:53:33;97870.09;;;19.55;74.70
11314;BME280;5712;48.858;9.206;2022-09-09T11:56:09;97866.91;;;19.76;73.92
11314;BME280;5712;48.858;9.206;2022-09-09T11:58:43;97857.97;;;19.99;72.72
11314;BME280;5712;48.858;9.206;2022-09-09T12:01:39;97855.91;;;20.25;71.48
11314;BME280;5712;48.858;9.206;2022-09-09T12:04:29;97849.16;;;20.37;70.10
11314;BME280;5712;48.858;9.206;2022-09-09T12:07:00;97846.81;;;20.42;66.65
11314;BME280;5712;48.858;9.206;2022-09-09T12:09:33;97838.78;;;20.34;63.31
11314;BME280;5712;48.858;9.206;2022-09-09T12:12:25;97843.91;;;20.13;63.18
11314;BME280;5712;48.858;9.206;2022-09-09T12:15:17;97847.56;;;20.12;64.69
11314;BME280;5712;48.858;9.206;2022-09-09T12:17:48;97850.41;;;20.19;64.29
11314;BME280;5712;48.858;9.206;2022-09-09T12:20:17;97854.53;;;20.37;63.28
11314;BME280;5712;48.858;9.206;2022-09-09T12:22:55;97850.56;;;20.64;62.38
11314;BME280;5712;48.858;9.206;2022-09-09T12:25:31;97849.59;;;20.95;63.58
11314;BME280;5712;48.858;9.206;2022-09-09T12:28:08;97846.50;;;21.06;61.38
11314;BME280;5712;48.858;9.206;2022-09-09T12:30:41;97848.19;;;21.07;61.99
11314;BME280;5712;48.858;9.206;2022-09-09T12:33:12;97844.41;;;21.16;59.12
11314;BME280;5712;48.858;9.206;2022-09-09T12:35:40;97846.44;;;21.14;57.54
11314;BME280;5712;48.858;9.206;2022-09-09T12:38:14;97842.03;;;21.21;59.12
11314;BME280;5712;48.858;9.206;2022-09-09T12:40:42;97833.72;;;21.31;58.93
11314;BME280;5712;48.858;9.206;2022-09-09T12:43:19;97838.91;;;21.32;53.63
11314;BME280;5712;48.858;9.206;2022-09-09T12:45:46;97838.03;;;21.40;53.20
11314;BME280;5712;48.858;9.206;2022-09-09T12:48:17;97837.78;;;21.49;53.50
11314;BME280;5712;48.858;9.206;2022-09-09T12:50:47;97834.91;;;21.51;52.41
11314;BME280;5712;48.858;9.206;2022-09-09T12:53:22;97834.94;;;21.65;53.82
11314;BME280;5712;48.858;9.206;2022-09-09T12:55:53;97826.22;;;22.00;54.01
11314;BME280;5712;48.858;9.206;2022-09-09T12:58:21;97827.72;;;22.17;52.81
11314;BME280;5712;48.858;9.206;2022-09-09T13:00:51;97819.63;;;22.32;50.92
11314;BME280;5712;48.858;9.206;2022-09-09T13:03:22;97818.50;;;22.41;52.01
11314;BME280;5712;48.858;9.206;2022-09-09T13:05:49;97816.03;;;22.39;51.73
11314;BME280;5712;48.858;9.206;2022-09-09T13:08:17;97814.81;;;22.56;50.94
11314;BME280;5712;48.858;9.206;2022-09-09T13:10:47;97813.84;;;22.99;48.73
11314;BME280;5712;48.858;9.206;2022-09-09T13:13:21;97805.88;;;23.48;48.26
11314;BME280;5712;48.858;9.206;2022-09-09T13:15:51;97808.06;;;23.86;47.73
11314;BME280;5712;48.858;9.206;2022-09-09T13:18:21;97804.50;;;24.07;47.66
11314;BME280;5712;48.858;9.206;2022-09-09T13:20:49;97801.59;;;24.08;47.42
11314;BME280;5712;48.858;9.206;2022-09-09T13:23:20;97803.31;;;24.16;46.83
11314;BME280;5712;48.858;9.206;2022-09-09T13:25:55;97803.78;;;24.26;46.19
11314;BME280;5712;48.858;9.206;2022-09-09T13:28:23;97799.28;;;24.39;46.78
11314;BME280;5712;48.858;9.206;2022-09-09T13:30:57;97796.66;;;24.52;44.92
11314;BME280;5712;48.858;9.206;2022-09-09T13:33:30;97800.53;;;24.77;44.36
11314;BME280;5712;48.858;9.206;2022-09-09T13:35:59;97790.19;;;25.00;45.05